createdAt,value
2018-11-28T00:03:07.875Z,31.20
2018-11-28T00:08:11.155Z,34.90
2018-11-28T00:13:14.442Z,29.70
2018-11-28T00:18:17.701Z,31.60
2018-11-28T00:23:20.967Z,31.87
2018-11-28T00:28:24.234Z,31.37
2018-11-28T00:33:27.506Z,29.03
2018-11-28T00:38:30.763Z,25.80
2018-11-28T00:43:34.015Z,34.50
2018-11-28T00:48:37.269Z,45.07
2018-11-28T00:53:40.523Z,36.70
2018-11-28T00:58:43.798Z,35.33
2018-11-28T01:03:47.046Z,38.63
2018-11-28T01:08:50.338Z,35.37
2018-11-28T01:13:53.622Z,49.70
2018-11-28T01:18:56.911Z,36.00
2018-11-28T01:24:00.207Z,41.43
2018-11-28T01:29:03.471Z,41.13
2018-11-28T01:34:06.999Z,44.00
2018-11-28T01:39:10.250Z,39.30
2018-11-28T01:44:13.515Z,38.37
2018-11-28T01:49:16.842Z,41.00
2018-11-28T01:54:20.123Z,44.30
2018-11-28T01:59:23.394Z,42.27
2018-11-28T02:04:26.686Z,44.73
2018-11-28T02:09:29.934Z,34.43
2018-11-28T02:14:33.178Z,40.40
2018-11-28T02:19:36.450Z,40.40
2018-11-28T02:24:39.702Z,34.30
2018-11-28T02:29:42.994Z,40.30
2018-11-28T02:34:46.254Z,37.53
2018-11-28T02:39:49.538Z,39.80
2018-11-28T02:44:52.823Z,35.83
2018-11-28T02:49:56.091Z,37.30
2018-11-28T02:54:59.354Z,38.93
2018-11-28T03:00:02.638Z,38.10
2018-11-28T03:05:07.338Z,36.53
2018-11-28T03:10:14.570Z,43.63
2018-11-28T03:15:25.798Z,33.40
2018-11-28T03:20:29.058Z,38.27
2018-11-28T03:25:32.343Z,33.83
2018-11-28T03:30:35.608Z,35.93
2018-11-28T03:35:38.902Z,35.50
2018-11-28T03:40:42.163Z,33.53
2018-11-28T03:45:45.446Z,36.73
2018-11-28T03:50:48.722Z,41.93
2018-11-28T03:55:51.954Z,44.93
2018-11-28T04:00:55.230Z,34.60
2018-11-28T04:05:58.486Z,30.17
2018-11-28T04:11:01.767Z,34.80
2018-11-28T04:16:05.422Z,35.53
2018-11-28T04:21:08.658Z,40.17
2018-11-28T04:26:11.966Z,34.37
2018-11-28T04:31:15.219Z,42.03
2018-11-28T04:36:18.494Z,30.30
2018-11-28T04:41:21.754Z,33.03
2018-11-28T04:46:25.023Z,29.53
2018-11-28T04:51:28.337Z,31.93
2018-11-28T04:56:31.603Z,32.63
2018-11-28T05:01:34.850Z,45.47
2018-11-28T05:07:43.234Z,34.50
2018-11-28T05:12:46.508Z,39.43
2018-11-28T05:17:50.745Z,39.03
2018-11-28T05:22:54.018Z,37.13
2018-11-28T05:27:58.939Z,32.63
2018-11-28T05:33:02.325Z,32.20
2018-11-28T05:38:12.703Z,32.10
2018-11-28T05:43:15.966Z,30.83
2018-11-28T05:48:19.213Z,32.50
2018-11-28T05:53:23.638Z,35.77
2018-11-28T05:58:26.881Z,32.17
2018-11-28T06:03:30.116Z,28.27
2018-11-28T06:08:33.362Z,32.60
2018-11-28T06:13:36.610Z,35.10
2018-11-28T06:18:40.518Z,32.33
2018-11-28T06:23:43.214Z,28.90
2018-11-28T06:28:46.442Z,32.67
2018-11-28T06:33:49.693Z,34.43
2018-11-28T06:38:52.954Z,28.53
2018-11-28T06:43:56.194Z,28.67
2018-11-28T06:48:59.498Z,29.37
2018-11-28T06:54:02.742Z,31.10
2018-11-28T06:59:06.306Z,29.73
2018-11-28T07:04:09.574Z,27.80
2018-11-28T07:09:12.902Z,28.43
2018-11-28T07:14:16.157Z,26.23
2018-11-28T07:19:19.406Z,27.17
2018-11-28T07:24:22.642Z,26.70
2018-11-28T07:29:25.886Z,25.53
2018-11-28T07:34:29.150Z,30.30
2018-11-28T07:39:32.414Z,27.00
2018-11-28T07:44:35.687Z,29.00
2018-11-28T07:49:38.953Z,29.30
2018-11-28T07:54:42.227Z,33.53
2018-11-28T07:59:45.470Z,23.83
2018-11-28T08:04:48.769Z,29.00
2018-11-28T08:09:52.058Z,24.30
2018-11-28T08:14:55.311Z,28.10
2018-11-28T08:19:58.569Z,25.27
2018-11-28T08:25:01.823Z,23.90
2018-11-28T08:30:10.055Z,25.50
2018-11-28T08:35:13.587Z,27.40
2018-11-28T08:40:26.424Z,23.33
2018-11-28T08:45:29.664Z,25.80
2018-11-28T08:50:35.045Z,29.10
2018-11-28T08:55:38.316Z,24.87
2018-11-28T09:00:41.570Z,26.07
2018-11-28T09:05:44.822Z,23.77
2018-11-28T09:10:48.058Z,25.13
2018-11-28T09:15:51.302Z,33.10
2018-11-28T09:20:54.575Z,23.40
2018-11-28T09:25:57.846Z,19.57
2018-11-28T09:31:01.119Z,20.77
2018-11-28T09:36:04.402Z,25.50
2018-11-28T09:41:07.674Z,21.30
2018-11-28T09:46:10.955Z,24.00
2018-11-28T09:51:14.223Z,23.87
2018-11-28T09:56:17.481Z,21.50
2018-11-28T10:01:20.774Z,19.90
2018-11-28T10:06:24.046Z,23.20
2018-11-28T10:11:27.392Z,23.73
2018-11-28T10:16:30.696Z,18.10
2018-11-28T10:21:33.978Z,20.47
2018-11-28T10:26:37.238Z,20.60
2018-11-28T10:31:40.505Z,20.60
2018-11-28T10:36:43.746Z,21.57
2018-11-28T10:41:47.010Z,22.40
2018-11-28T10:46:50.259Z,21.60
2018-11-28T10:51:53.473Z,18.90
2018-11-28T10:56:56.711Z,22.67
2018-11-28T11:02:05.429Z,21.43
2018-11-28T11:07:14.058Z,22.10
2018-11-28T11:12:22.768Z,20.60
2018-11-28T11:17:26.006Z,17.97
2018-11-28T11:22:29.235Z,17.20
2018-11-28T11:27:32.441Z,16.90
2018-11-28T11:32:35.670Z,17.90
2018-11-28T11:37:38.931Z,20.07
2018-11-28T11:42:43.190Z,21.80
2018-11-28T11:47:46.415Z,20.60
2018-11-28T11:52:49.643Z,18.80
2018-11-28T11:57:53.493Z,18.30
2018-11-28T12:02:57.874Z,20.10
2018-11-28T12:08:01.102Z,19.50
2018-11-28T12:13:04.486Z,18.03
2018-11-28T12:18:07.741Z,17.10
2018-11-28T12:23:11.008Z,18.60
2018-11-28T12:28:14.266Z,25.50
2018-11-28T12:33:17.481Z,16.57
2018-11-28T12:38:20.727Z,19.50
2018-11-28T12:43:24.015Z,20.93
2018-11-28T12:48:27.266Z,20.30
2018-11-28T12:53:30.518Z,22.43
2018-11-28T12:58:33.742Z,16.20
2018-11-28T13:03:36.983Z,17.40
2018-11-28T13:08:40.230Z,19.33
2018-11-28T13:13:43.462Z,17.80
2018-11-28T13:18:46.710Z,16.43
2018-11-28T13:23:50.658Z,19.83
2018-11-28T13:28:53.890Z,16.90
2018-11-28T13:33:57.130Z,20.50
2018-11-28T13:39:00.372Z,17.40
2018-11-28T13:44:03.606Z,19.33
2018-11-28T13:49:06.851Z,27.93
2018-11-28T13:54:21.059Z,19.67
2018-11-28T13:59:13.356Z,20.00
2018-11-28T14:04:16.566Z,18.53
2018-11-28T14:09:19.786Z,22.53
2018-11-28T14:14:23.027Z,21.40
2018-11-28T14:19:26.286Z,23.07
2018-11-28T14:24:29.519Z,24.37
2018-11-28T14:29:32.755Z,19.60
2018-11-28T14:34:35.974Z,23.73
2018-11-28T14:39:39.248Z,21.87
2018-11-28T14:44:42.518Z,19.87
2018-11-28T14:49:45.770Z,21.70
2018-11-28T14:54:48.997Z,21.47
2018-11-28T14:59:52.254Z,21.40
2018-11-28T15:04:55.522Z,33.87
2018-11-28T15:09:58.820Z,11.20
2018-11-28T15:15:02.078Z,27.30
2018-11-28T15:20:07.159Z,44.27
2018-11-28T15:25:10.579Z,35.47
2018-11-28T15:30:13.830Z,19.97
2018-11-28T15:35:17.102Z,32.17
2018-11-28T15:40:20.346Z,16.13
2018-11-28T15:45:23.587Z,20.07
2018-11-28T15:50:26.857Z,37.03
2018-11-28T15:55:30.130Z,27.17
2018-11-28T16:00:33.406Z,28.90
2018-11-28T16:05:36.663Z,29.87
2018-11-28T16:10:42.771Z,17.83
2018-11-28T16:15:53.333Z,22.23
2018-11-28T16:20:56.586Z,18.37
2018-11-28T16:26:00.055Z,24.60
2018-11-28T16:31:03.326Z,18.50
2018-11-28T16:36:06.635Z,21.50
2018-11-28T16:41:09.932Z,22.60
2018-11-28T16:46:15.806Z,18.90
2018-11-28T16:51:19.308Z,20.83
2018-11-28T16:56:22.572Z,23.27
2018-11-28T17:01:25.816Z,21.07
2018-11-28T17:06:29.155Z,26.30
2018-11-28T17:11:32.437Z,23.77
2018-11-28T17:16:35.734Z,23.37
2018-11-28T17:21:38.990Z,28.43
2018-11-28T17:26:42.339Z,22.83
2018-11-28T17:31:45.610Z,24.87
2018-11-28T17:36:48.902Z,23.67
2018-11-28T17:41:52.162Z,24.37
2018-11-28T17:46:55.437Z,27.73
2018-11-28T17:51:58.706Z,27.60
2018-11-28T17:57:02.018Z,25.80
2018-11-28T18:02:05.659Z,23.30
2018-11-28T18:07:08.885Z,23.67
2018-11-28T18:12:12.206Z,18.87
2018-11-28T18:17:15.489Z,24.20
2018-11-28T18:22:18.737Z,22.87
2018-11-28T18:27:21.977Z,26.10
2018-11-28T18:32:25.232Z,25.60
2018-11-28T18:37:28.568Z,19.40
2018-11-28T18:42:31.870Z,23.40
2018-11-28T18:47:35.233Z,18.67
2018-11-28T18:52:38.543Z,22.30
2018-11-28T18:57:41.853Z,20.37
2018-11-28T19:02:45.205Z,18.63
2018-11-28T19:07:48.478Z,16.27
2018-11-28T19:12:52.421Z,23.20
2018-11-28T19:17:56.458Z,21.97
2018-11-28T19:23:00.170Z,22.30
2018-11-28T19:28:03.493Z,26.70
2018-11-28T19:33:09.822Z,19.87
2018-11-28T19:38:14.287Z,21.13
2018-11-28T19:43:17.554Z,24.60
2018-11-28T19:48:20.799Z,20.73
2018-11-28T19:53:24.061Z,20.60
2018-11-28T19:58:27.290Z,23.67
2018-11-28T20:03:30.530Z,22.70
2018-11-28T20:08:33.755Z,20.60
2018-11-28T20:13:37.011Z,19.60
2018-11-28T20:18:40.315Z,20.60
2018-11-28T20:23:43.538Z,19.20
2018-11-28T20:28:46.803Z,18.50
2018-11-28T20:33:50.043Z,21.30
2018-11-28T20:38:53.335Z,18.00
2018-11-28T20:43:56.593Z,15.13
2018-11-28T20:48:59.850Z,15.53
2018-11-28T20:54:03.930Z,14.70
2018-11-28T20:59:07.187Z,18.10
2018-11-28T21:04:11.016Z,12.50
2018-11-28T21:09:13.729Z,14.50
2018-11-28T21:14:16.985Z,14.30
2018-11-28T21:19:20.257Z,11.43
2018-11-28T21:24:23.526Z,11.50
2018-11-28T21:29:26.794Z,14.50
2018-11-28T21:34:30.041Z,11.27
2018-11-28T21:39:33.278Z,10.50
2018-11-28T21:44:36.544Z,10.80
2018-11-28T21:49:39.802Z,12.57
2018-11-28T21:54:43.037Z,9.50
2018-11-28T21:59:46.270Z,7.83
2018-11-28T22:04:49.517Z,7.50
2018-11-28T22:09:52.738Z,7.53
2018-11-28T22:14:55.970Z,10.30
2018-11-28T22:19:59.262Z,7.77
2018-11-28T22:25:02.510Z,8.30
2018-11-28T22:30:06.360Z,7.60
2018-11-28T22:35:09.662Z,12.13
2018-11-28T22:40:14.229Z,6.83
2018-11-28T22:45:18.547Z,9.83
2018-11-28T22:50:21.801Z,6.17
2018-11-28T22:55:25.075Z,5.90
2018-11-28T23:00:33.912Z,9.70
2018-11-28T23:05:41.321Z,5.17
2018-11-28T23:10:44.610Z,8.50
2018-11-28T23:15:47.890Z,6.93
2018-11-28T23:20:51.153Z,8.27
2018-11-28T23:25:54.394Z,7.37
2018-11-28T23:30:57.614Z,7.37
2018-11-28T23:36:00.894Z,7.07
2018-11-28T23:41:04.105Z,6.80
2018-11-28T23:46:07.325Z,10.53
2018-11-28T23:51:10.613Z,7.07
2018-11-28T23:56:13.835Z,7.03
